sensor_id;sensor_type;location;lat;lon;timestamp;P1;durP1;ratioP1;P2;durP2;ratioP2
27839;SDS011;15207;42.182;24.308;2023-12-07T00:00:09;33.17;;;18.75;;
27839;SDS011;15207;42.182;24.308;2023-12-07T00:02:35;30.53;;;19.27;;
27839;SDS011;15207;42.182;24.308;2023-12-07T00:05:00;31.30;;;19.20;;
27839;SDS011;15207;42.182;24.308;2023-12-07T00:07:25;34.30;;;17.90;;
27839;SDS011;15207;42.182;24.308;2023-12-07T00:09:51;34.20;;;18.60;;
27839;SDS011;15207;42.182;24.308;2023-12-07T00:12:17;29.25;;;17.65;;
27839;SDS011;15207;42.182;24.308;2023-12-07T00:17:07;29.65;;;17.90;;
27839;SDS011;15207;42.182;24.308;2023-12-07T00:19:33;29.35;;;18.35;;
27839;SDS011;15207;42.182;24.308;2023-12-07T00:21:58;30.05;;;18.60;;
27839;SDS011;15207;42.182;24.308;2023-12-07T00:24:23;26.20;;;17.10;;
27839;SDS011;15207;42.182;24.308;2023-12-07T00:26:49;30.20;;;17.90;;
27839;SDS011;15207;42.182;24.308;2023-12-07T00:31:40;26.60;;;16.40;;
27839;SDS011;15207;42.182;24.308;2023-12-07T00:34:05;27.10;;;16.17;;
27839;SDS011;15207;42.182;24.308;2023-12-07T00:36:31;28.70;;;16.80;;
27839;SDS011;15207;42.182;24.308;2023-12-07T00:38:56;26.00;;;15.70;;
27839;SDS011;15207;42.182;24.308;2023-12-07T00:41:21;24.90;;;15.75;;
27839;SDS011;15207;42.182;24.308;2023-12-07T00:43:47;29.90;;;16.45;;
27839;SDS011;15207;42.182;24.308;2023-12-07T00:46:12;27.55;;;17.25;;
27839;SDS011;15207;42.182;24.308;2023-12-07T00:51:03;29.00;;;18.60;;
27839;SDS011;15207;42.182;24.308;2023-12-07T00:58:21;30.75;;;18.60;;
27839;SDS011;15207;42.182;24.308;2023-12-07T01:00:48;30.90;;;19.00;;
27839;SDS011;15207;42.182;24.308;2023-12-07T01:03:13;31.00;;;18.10;;
27839;SDS011;15207;42.182;24.308;2023-12-07T01:05:39;29.30;;;17.40;;
27839;SDS011;15207;42.182;24.308;2023-12-07T01:08:04;34.80;;;18.90;;
27839;SDS011;15207;42.182;24.308;2023-12-07T01:10:30;28.40;;;18.45;;
27839;SDS011;15207;42.182;24.308;2023-12-07T01:12:55;35.10;;;20.70;;
27839;SDS011;15207;42.182;24.308;2023-12-07T01:20:11;28.77;;;17.98;;
27839;SDS011;15207;42.182;24.308;2023-12-07T01:22:40;27.80;;;17.40;;
27839;SDS011;15207;42.182;24.308;2023-12-07T01:25:06;29.80;;;18.80;;
27839;SDS011;15207;42.182;24.308;2023-12-07T01:27:32;26.90;;;17.70;;
27839;SDS011;15207;42.182;24.308;2023-12-07T01:29:57;30.80;;;18.80;;
27839;SDS011;15207;42.182;24.308;2023-12-07T01:32:23;32.10;;;19.30;;
27839;SDS011;15207;42.182;24.308;2023-12-07T01:34:48;31.10;;;19.00;;
27839;SDS011;15207;42.182;24.308;2023-12-07T01:37:14;30.40;;;18.90;;
27839;SDS011;15207;42.182;24.308;2023-12-07T01:39:41;28.50;;;17.60;;
27839;SDS011;15207;42.182;24.308;2023-12-07T01:42:07;34.30;;;20.60;;
27839;SDS011;15207;42.182;24.308;2023-12-07T01:44:34;33.25;;;18.95;;
27839;SDS011;15207;42.182;24.308;2023-12-07T01:46:59;25.80;;;16.95;;
27839;SDS011;15207;42.182;24.308;2023-12-07T01:49:25;31.50;;;18.40;;
27839;SDS011;15207;42.182;24.308;2023-12-07T01:51:50;30.80;;;17.83;;
27839;SDS011;15207;42.182;24.308;2023-12-07T01:54:16;29.25;;;17.88;;
27839;SDS011;15207;42.182;24.308;2023-12-07T01:56:42;33.00;;;20.55;;
27839;SDS011;15207;42.182;24.308;2023-12-07T01:59:07;37.10;;;20.60;;
27839;SDS011;15207;42.182;24.308;2023-12-07T02:01:33;33.10;;;19.55;;
27839;SDS011;15207;42.182;24.308;2023-12-07T02:03:59;31.20;;;19.30;;
27839;SDS011;15207;42.182;24.308;2023-12-07T02:06:24;33.60;;;20.20;;
27839;SDS011;15207;42.182;24.308;2023-12-07T02:11:16;33.90;;;20.45;;
27839;SDS011;15207;42.182;24.308;2023-12-07T02:13:43;37.05;;;21.75;;
27839;SDS011;15207;42.182;24.308;2023-12-07T02:16:17;37.50;;;22.00;;
27839;SDS011;15207;42.182;24.308;2023-12-07T02:18:53;34.10;;;21.50;;
27839;SDS011;15207;42.182;24.308;2023-12-07T02:21:34;34.90;;;22.50;;
27839;SDS011;15207;42.182;24.308;2023-12-07T02:24:06;38.35;;;21.80;;
27839;SDS011;15207;42.182;24.308;2023-12-07T02:26:33;36.80;;;21.97;;
27839;SDS011;15207;42.182;24.308;2023-12-07T02:29:00;36.95;;;22.50;;
27839;SDS011;15207;42.182;24.308;2023-12-07T02:31:25;32.40;;;21.00;;
27839;SDS011;15207;42.182;24.308;2023-12-07T02:33:51;31.50;;;20.10;;
27839;SDS011;15207;42.182;24.308;2023-12-07T02:36:17;29.00;;;19.00;;
27839;SDS011;15207;42.182;24.308;2023-12-07T02:38:45;34.90;;;20.90;;
27839;SDS011;15207;42.182;24.308;2023-12-07T02:41:12;35.40;;;20.70;;
27839;SDS011;15207;42.182;24.308;2023-12-07T02:43:38;36.10;;;20.65;;
27839;SDS011;15207;42.182;24.308;2023-12-07T02:46:04;36.80;;;21.92;;
27839;SDS011;15207;42.182;24.308;2023-12-07T02:48:29;32.20;;;19.40;;
27839;SDS011;15207;42.182;24.308;2023-12-07T02:53:20;34.90;;;20.50;;
27839;SDS011;15207;42.182;24.308;2023-12-07T02:55:46;36.20;;;20.90;;
27839;SDS011;15207;42.182;24.308;2023-12-07T02:58:11;34.05;;;21.00;;
27839;SDS011;15207;42.182;24.308;2023-12-07T03:00:37;38.77;;;21.90;;
27839;SDS011;15207;42.182;24.308;2023-12-07T03:03:02;38.80;;;21.60;;
27839;SDS011;15207;42.182;24.308;2023-12-07T03:05:27;30.35;;;19.85;;
27839;SDS011;15207;42.182;24.308;2023-12-07T03:07:53;31.70;;;20.40;;
27839;SDS011;15207;42.182;24.308;2023-12-07T03:12:43;30.40;;;18.70;;
27839;SDS011;15207;42.182;24.308;2023-12-07T03:15:09;32.20;;;19.70;;
27839;SDS011;15207;42.182;24.308;2023-12-07T03:17:35;34.90;;;21.30;;
27839;SDS011;15207;42.182;24.308;2023-12-07T03:20:00;33.90;;;21.17;;
27839;SDS011;15207;42.182;24.308;2023-12-07T03:22:26;32.50;;;18.90;;
27839;SDS011;15207;42.182;24.308;2023-12-07T03:24:51;32.75;;;20.30;;
27839;SDS011;15207;42.182;24.308;2023-12-07T03:27:17;33.90;;;20.60;;
27839;SDS011;15207;42.182;24.308;2023-12-07T03:29:43;35.60;;;21.10;;
27839;SDS011;15207;42.182;24.308;2023-12-07T03:32:08;33.70;;;21.75;;
27839;SDS011;15207;42.182;24.308;2023-12-07T03:34:34;33.90;;;20.60;;
27839;SDS011;15207;42.182;24.308;2023-12-07T03:36:59;37.80;;;21.80;;
27839;SDS011;15207;42.182;24.308;2023-12-07T03:39:24;38.35;;;22.15;;
27839;SDS011;15207;42.182;24.308;2023-12-07T03:41:51;34.85;;;21.10;;
27839;SDS011;15207;42.182;24.308;2023-12-07T03:44:16;39.60;;;22.50;;
27839;SDS011;15207;42.182;24.308;2023-12-07T03:46:42;40.13;;;22.23;;
27839;SDS011;15207;42.182;24.308;2023-12-07T03:49:07;38.30;;;21.30;;
27839;SDS011;15207;42.182;24.308;2023-12-07T03:51:33;39.90;;;21.10;;
27839;SDS011;15207;42.182;24.308;2023-12-07T03:54:01;40.30;;;20.60;;
27839;SDS011;15207;42.182;24.308;2023-12-07T03:56:27;36.50;;;21.90;;
27839;SDS011;15207;42.182;24.308;2023-12-07T04:01:26;40.40;;;21.10;;
27839;SDS011;15207;42.182;24.308;2023-12-07T04:03:53;32.00;;;20.00;;
27839;SDS011;15207;42.182;24.308;2023-12-07T04:06:20;33.70;;;20.00;;
27839;SDS011;15207;42.182;24.308;2023-12-07T04:08:46;32.50;;;19.70;;
27839;SDS011;15207;42.182;24.308;2023-12-07T04:11:11;35.20;;;19.70;;
27839;SDS011;15207;42.182;24.308;2023-12-07T04:13:37;33.10;;;20.10;;
27839;SDS011;15207;42.182;24.308;2023-12-07T04:16:03;36.15;;;19.95;;
27839;SDS011;15207;42.182;24.308;2023-12-07T04:18:29;30.50;;;18.95;;
27839;SDS011;15207;42.182;24.308;2023-12-07T04:23:20;34.30;;;19.20;;
27839;SDS011;15207;42.182;24.308;2023-12-07T04:25:45;40.00;;;20.30;;
27839;SDS011;15207;42.182;24.308;2023-12-07T04:28:10;32.30;;;20.20;;
27839;SDS011;15207;42.182;24.308;2023-12-07T04:30:36;41.05;;;21.40;;
27839;SDS011;15207;42.182;24.308;2023-12-07T04:33:01;43.00;;;23.95;;
27839;SDS011;15207;42.182;24.308;2023-12-07T04:35:27;39.60;;;22.90;;
27839;SDS011;15207;42.182;24.308;2023-12-07T04:40:19;32.75;;;20.05;;
27839;SDS011;15207;42.182;24.308;2023-12-07T04:45:09;41.60;;;23.10;;
27839;SDS011;15207;42.182;24.308;2023-12-07T04:47:36;39.00;;;22.25;;
27839;SDS011;15207;42.182;24.308;2023-12-07T04:50:01;36.25;;;21.65;;
27839;SDS011;15207;42.182;24.308;2023-12-07T04:52:28;33.50;;;20.80;;
27839;SDS011;15207;42.182;24.308;2023-12-07T04:54:53;37.50;;;21.10;;
27839;SDS011;15207;42.182;24.308;2023-12-07T04:57:18;34.15;;;20.05;;
27839;SDS011;15207;42.182;24.308;2023-12-07T04:59:44;30.40;;;20.20;;
27839;SDS011;15207;42.182;24.308;2023-12-07T05:02:13;30.40;;;18.80;;
27839;SDS011;15207;42.182;24.308;2023-12-07T05:04:39;33.00;;;20.00;;
27839;SDS011;15207;42.182;24.308;2023-12-07T05:07:05;29.60;;;18.87;;
27839;SDS011;15207;42.182;24.308;2023-12-07T05:09:30;32.30;;;18.80;;
27839;SDS011;15207;42.182;24.308;2023-12-07T05:11:56;25.75;;;16.60;;
27839;SDS011;15207;42.182;24.308;2023-12-07T05:14:21;25.05;;;14.90;;
27839;SDS011;15207;42.182;24.308;2023-12-07T05:16:48;25.65;;;15.60;;
27839;SDS011;15207;42.182;24.308;2023-12-07T05:19:17;24.70;;;15.55;;
27839;SDS011;15207;42.182;24.308;2023-12-07T05:21:52;26.30;;;16.60;;
27839;SDS011;15207;42.182;24.308;2023-12-07T05:24:17;28.50;;;18.60;;
27839;SDS011;15207;42.182;24.308;2023-12-07T05:26:43;36.90;;;21.30;;
27839;SDS011;15207;42.182;24.308;2023-12-07T05:29:13;36.45;;;21.45;;
27839;SDS011;15207;42.182;24.308;2023-12-07T05:31:39;39.30;;;23.40;;
27839;SDS011;15207;42.182;24.308;2023-12-07T05:34:05;35.65;;;21.80;;
27839;SDS011;15207;42.182;24.308;2023-12-07T05:36:32;37.40;;;22.90;;
27839;SDS011;15207;42.182;24.308;2023-12-07T05:38:57;38.20;;;24.10;;
27839;SDS011;15207;42.182;24.308;2023-12-07T05:41:23;36.40;;;21.40;;
27839;SDS011;15207;42.182;24.308;2023-12-07T05:43:50;85.20;;;27.40;;
27839;SDS011;15207;42.182;24.308;2023-12-07T05:46:16;57.85;;;23.40;;
27839;SDS011;15207;42.182;24.308;2023-12-07T05:51:13;90.40;;;27.70;;
27839;SDS011;15207;42.182;24.308;2023-12-07T05:53:42;149.50;;;34.70;;
27839;SDS011;15207;42.182;24.308;2023-12-07T05:56:08;197.40;;;41.80;;
27839;SDS011;15207;42.182;24.308;2023-12-07T05:58:34;124.20;;;34.60;;
27839;SDS011;15207;42.182;24.308;2023-12-07T06:01:00;116.65;;;37.20;;
27839;SDS011;15207;42.182;24.308;2023-12-07T06:03:26;124.30;;;34.20;;
27839;SDS011;15207;42.182;24.308;2023-12-07T06:05:52;109.50;;;33.70;;
27839;SDS011;15207;42.182;24.308;2023-12-07T06:08:17;99.00;;;36.07;;
27839;SDS011;15207;42.182;24.308;2023-12-07T06:10:43;62.40;;;32.00;;
27839;SDS011;15207;42.182;24.308;2023-12-07T06:13:08;75.10;;;36.10;;
27839;SDS011;15207;42.182;24.308;2023-12-07T06:15:33;71.10;;;35.70;;
27839;SDS011;15207;42.182;24.308;2023-12-07T06:17:59;65.10;;;34.90;;
27839;SDS011;15207;42.182;24.308;2023-12-07T06:20:25;54.20;;;32.20;;
27839;SDS011;15207;42.182;24.308;2023-12-07T06:22:50;54.00;;;31.30;;
27839;SDS011;15207;42.182;24.308;2023-12-07T06:25:15;58.30;;;32.60;;
27839;SDS011;15207;42.182;24.308;2023-12-07T06:27:41;92.80;;;57.40;;
27839;SDS011;15207;42.182;24.308;2023-12-07T06:30:06;97.43;;;54.80;;
27839;SDS011;15207;42.182;24.308;2023-12-07T06:32:32;99.90;;;55.10;;
27839;SDS011;15207;42.182;24.308;2023-12-07T06:34:58;94.10;;;51.70;;
27839;SDS011;15207;42.182;24.308;2023-12-07T06:39:49;82.70;;;44.80;;
27839;SDS011;15207;42.182;24.308;2023-12-07T06:44:48;85.50;;;48.00;;
27839;SDS011;15207;42.182;24.308;2023-12-07T06:47:14;94.35;;;50.95;;
27839;SDS011;15207;42.182;24.308;2023-12-07T06:52:05;92.55;;;52.40;;
27839;SDS011;15207;42.182;24.308;2023-12-07T06:54:31;105.25;;;61.00;;
27839;SDS011;15207;42.182;24.308;2023-12-07T06:56:56;81.40;;;47.50;;
27839;SDS011;15207;42.182;24.308;2023-12-07T06:59:21;79.15;;;43.30;;
27839;SDS011;15207;42.182;24.308;2023-12-07T07:01:47;77.80;;;44.40;;
27839;SDS011;15207;42.182;24.308;2023-12-07T07:04:12;73.70;;;43.60;;
27839;SDS011;15207;42.182;24.308;2023-12-07T07:06:38;75.75;;;42.40;;
27839;SDS011;15207;42.182;24.308;2023-12-07T07:09:05;77.35;;;45.30;;
27839;SDS011;15207;42.182;24.308;2023-12-07T07:11:30;75.03;;;47.13;;
27839;SDS011;15207;42.182;24.308;2023-12-07T07:13:56;70.30;;;42.90;;
27839;SDS011;15207;42.182;24.308;2023-12-07T07:16:21;71.30;;;45.30;;
27839;SDS011;15207;42.182;24.308;2023-12-07T07:18:46;77.40;;;43.70;;
27839;SDS011;15207;42.182;24.308;2023-12-07T07:23:37;55.50;;;32.60;;
27839;SDS011;15207;42.182;24.308;2023-12-07T07:26:03;48.40;;;30.50;;
27839;SDS011;15207;42.182;24.308;2023-12-07T07:28:28;53.20;;;28.35;;
27839;SDS011;15207;42.182;24.308;2023-12-07T07:30:54;49.00;;;27.65;;
27839;SDS011;15207;42.182;24.308;2023-12-07T07:33:19;60.10;;;26.00;;
27839;SDS011;15207;42.182;24.308;2023-12-07T07:35:45;48.80;;;28.80;;
27839;SDS011;15207;42.182;24.308;2023-12-07T07:38:10;46.90;;;27.30;;
27839;SDS011;15207;42.182;24.308;2023-12-07T07:40:36;54.30;;;28.40;;
27839;SDS011;15207;42.182;24.308;2023-12-07T07:43:01;50.00;;;26.90;;
27839;SDS011;15207;42.182;24.308;2023-12-07T07:47:52;57.30;;;30.50;;
27839;SDS011;15207;42.182;24.308;2023-12-07T07:50:17;58.70;;;30.50;;
27839;SDS011;15207;42.182;24.308;2023-12-07T07:52:43;49.45;;;29.15;;
27839;SDS011;15207;42.182;24.308;2023-12-07T07:55:09;53.90;;;30.80;;
27839;SDS011;15207;42.182;24.308;2023-12-07T07:57:35;61.05;;;32.45;;
27839;SDS011;15207;42.182;24.308;2023-12-07T08:00:00;56.20;;;33.40;;
27839;SDS011;15207;42.182;24.308;2023-12-07T08:02:26;52.45;;;30.35;;
27839;SDS011;15207;42.182;24.308;2023-12-07T08:04:52;57.60;;;32.50;;
27839;SDS011;15207;42.182;24.308;2023-12-07T08:09:43;50.10;;;29.30;;
27839;SDS011;15207;42.182;24.308;2023-12-07T08:12:08;52.50;;;31.20;;
27839;SDS011;15207;42.182;24.308;2023-12-07T08:14:36;46.60;;;29.10;;
27839;SDS011;15207;42.182;24.308;2023-12-07T08:17:05;44.95;;;29.10;;
27839;SDS011;15207;42.182;24.308;2023-12-07T08:21:56;59.50;;;34.75;;
27839;SDS011;15207;42.182;24.308;2023-12-07T08:24:21;46.30;;;29.45;;
27839;SDS011;15207;42.182;24.308;2023-12-07T08:26:46;45.85;;;29.95;;
27839;SDS011;15207;42.182;24.308;2023-12-07T08:29:12;49.95;;;28.50;;
27839;SDS011;15207;42.182;24.308;2023-12-07T08:34:05;42.70;;;28.20;;
27839;SDS011;15207;42.182;24.308;2023-12-07T08:36:30;45.30;;;28.00;;
27839;SDS011;15207;42.182;24.308;2023-12-07T08:38:56;42.00;;;26.30;;
27839;SDS011;15207;42.182;24.308;2023-12-07T08:41:21;47.30;;;28.10;;
27839;SDS011;15207;42.182;24.308;2023-12-07T08:43:46;35.60;;;22.90;;
27839;SDS011;15207;42.182;24.308;2023-12-07T08:46:12;37.40;;;20.60;;
27839;SDS011;15207;42.182;24.308;2023-12-07T08:48:37;32.80;;;18.70;;
27839;SDS011;15207;42.182;24.308;2023-12-07T08:51:03;25.90;;;18.00;;
27839;SDS011;15207;42.182;24.308;2023-12-07T08:53:29;27.05;;;17.40;;
27839;SDS011;15207;42.182;24.308;2023-12-07T08:55:54;30.73;;;17.23;;
27839;SDS011;15207;42.182;24.308;2023-12-07T08:58:20;32.70;;;19.60;;
27839;SDS011;15207;42.182;24.308;2023-12-07T09:00:46;22.60;;;15.60;;
27839;SDS011;15207;42.182;24.308;2023-12-07T09:05:37;33.60;;;17.80;;
27839;SDS011;15207;42.182;24.308;2023-12-07T09:08:02;25.50;;;14.75;;
27839;SDS011;15207;42.182;24.308;2023-12-07T09:10:28;20.30;;;14.10;;
27839;SDS011;15207;42.182;24.308;2023-12-07T09:12:53;30.70;;;15.30;;
27839;SDS011;15207;42.182;24.308;2023-12-07T09:15:18;22.45;;;14.35;;
27839;SDS011;15207;42.182;24.308;2023-12-07T09:17:44;22.40;;;13.60;;
27839;SDS011;15207;42.182;24.308;2023-12-07T09:20:09;24.40;;;14.30;;
27839;SDS011;15207;42.182;24.308;2023-12-07T09:22:45;25.80;;;13.90;;
27839;SDS011;15207;42.182;24.308;2023-12-07T09:25:13;20.90;;;13.10;;
27839;SDS011;15207;42.182;24.308;2023-12-07T09:30:08;27.80;;;14.40;;
27839;SDS011;15207;42.182;24.308;2023-12-07T09:32:38;23.10;;;14.10;;
27839;SDS011;15207;42.182;24.308;2023-12-07T09:35:08;20.40;;;13.50;;
27839;SDS011;15207;42.182;24.308;2023-12-07T09:37:55;22.40;;;13.10;;
27839;SDS011;15207;42.182;24.308;2023-12-07T09:40:21;19.10;;;13.15;;
27839;SDS011;15207;42.182;24.308;2023-12-07T09:42:47;23.00;;;13.07;;
27839;SDS011;15207;42.182;24.308;2023-12-07T09:45:14;21.70;;;12.90;;
27839;SDS011;15207;42.182;24.308;2023-12-07T09:47:50;21.40;;;13.10;;
27839;SDS011;15207;42.182;24.308;2023-12-07T09:52:44;24.80;;;13.90;;
27839;SDS011;15207;42.182;24.308;2023-12-07T09:55:09;24.40;;;15.00;;
27839;SDS011;15207;42.182;24.308;2023-12-07T09:57:37;25.75;;;15.30;;
27839;SDS011;15207;42.182;24.308;2023-12-07T10:05:05;27.30;;;13.55;;
27839;SDS011;15207;42.182;24.308;2023-12-07T10:07:32;21.50;;;12.90;;
27839;SDS011;15207;42.182;24.308;2023-12-07T10:10:03;23.70;;;13.50;;
27839;SDS011;15207;42.182;24.308;2023-12-07T10:12:30;28.55;;;14.85;;
27839;SDS011;15207;42.182;24.308;2023-12-07T10:14:56;24.40;;;14.10;;
27839;SDS011;15207;42.182;24.308;2023-12-07T10:17:21;32.90;;;15.47;;
27839;SDS011;15207;42.182;24.308;2023-12-07T10:19:55;35.30;;;15.10;;
27839;SDS011;15207;42.182;24.308;2023-12-07T10:22:33;22.00;;;15.10;;
27839;SDS011;15207;42.182;24.308;2023-12-07T10:24:59;32.00;;;15.25;;
27839;SDS011;15207;42.182;24.308;2023-12-07T10:27:24;23.50;;;14.15;;
27839;SDS011;15207;42.182;24.308;2023-12-07T10:32:16;29.65;;;14.40;;
27839;SDS011;15207;42.182;24.308;2023-12-07T10:34:41;35.20;;;16.20;;
27839;SDS011;15207;42.182;24.308;2023-12-07T10:37:07;34.10;;;16.10;;
27839;SDS011;15207;42.182;24.308;2023-12-07T10:39:32;25.30;;;14.35;;
27839;SDS011;15207;42.182;24.308;2023-12-07T10:44:26;29.13;;;15.83;;
27839;SDS011;15207;42.182;24.308;2023-12-07T10:49:19;26.75;;;15.45;;
27839;SDS011;15207;42.182;24.308;2023-12-07T10:51:50;29.50;;;15.90;;
27839;SDS011;15207;42.182;24.308;2023-12-07T10:54:22;36.40;;;16.60;;
27839;SDS011;15207;42.182;24.308;2023-12-07T10:56:48;46.40;;;17.80;;
27839;SDS011;15207;42.182;24.308;2023-12-07T11:01:41;34.40;;;17.80;;
27839;SDS011;15207;42.182;24.308;2023-12-07T11:04:11;49.10;;;19.00;;
27839;SDS011;15207;42.182;24.308;2023-12-07T11:06:39;29.30;;;17.20;;
27839;SDS011;15207;42.182;24.308;2023-12-07T11:09:08;34.25;;;18.10;;
27839;SDS011;15207;42.182;24.308;2023-12-07T11:11:43;45.55;;;22.80;;
27839;SDS011;15207;42.182;24.308;2023-12-07T11:14:19;38.70;;;21.10;;
27839;SDS011;15207;42.182;24.308;2023-12-07T11:16:45;58.30;;;26.30;;
27839;SDS011;15207;42.182;24.308;2023-12-07T11:22:01;38.40;;;21.90;;
27839;SDS011;15207;42.182;24.308;2023-12-07T11:24:29;39.30;;;20.20;;
27839;SDS011;15207;42.182;24.308;2023-12-07T11:26:55;32.00;;;19.70;;
27839;SDS011;15207;42.182;24.308;2023-12-07T11:29:21;30.73;;;18.52;;
27839;SDS011;15207;42.182;24.308;2023-12-07T11:31:56;42.20;;;22.30;;
27839;SDS011;15207;42.182;24.308;2023-12-07T11:34:38;51.03;;;22.20;;
27839;SDS011;15207;42.182;24.308;2023-12-07T11:37:04;39.50;;;20.30;;
27839;SDS011;15207;42.182;24.308;2023-12-07T11:39:40;56.80;;;21.60;;
27839;SDS011;15207;42.182;24.308;2023-12-07T11:44:37;46.90;;;23.30;;
27839;SDS011;15207;42.182;24.308;2023-12-07T11:47:03;40.60;;;21.45;;
27839;SDS011;15207;42.182;24.308;2023-12-07T11:51:56;49.15;;;23.25;;
27839;SDS011;15207;42.182;24.308;2023-12-07T11:54:22;41.55;;;22.50;;
27839;SDS011;15207;42.182;24.308;2023-12-07T11:56:55;37.43;;;21.13;;
27839;SDS011;15207;42.182;24.308;2023-12-07T11:59:21;35.05;;;22.10;;
27839;SDS011;15207;42.182;24.308;2023-12-07T12:01:48;38.20;;;21.80;;
27839;SDS011;15207;42.182;24.308;2023-12-07T12:04:17;43.15;;;22.95;;
27839;SDS011;15207;42.182;24.308;2023-12-07T12:06:43;35.00;;;21.80;;
27839;SDS011;15207;42.182;24.308;2023-12-07T12:09:11;40.15;;;21.25;;
27839;SDS011;15207;42.182;24.308;2023-12-07T12:11:38;40.30;;;21.70;;
27839;SDS011;15207;42.182;24.308;2023-12-07T12:14:08;40.50;;;23.20;;
27839;SDS011;15207;42.182;24.308;2023-12-07T12:16:34;41.30;;;24.30;;
27839;SDS011;15207;42.182;24.308;2023-12-07T12:18:59;38.25;;;22.30;;
27839;SDS011;15207;42.182;24.308;2023-12-07T12:21:25;35.50;;;21.10;;
27839;SDS011;15207;42.182;24.308;2023-12-07T12:23:50;36.10;;;21.40;;
27839;SDS011;15207;42.182;24.308;2023-12-07T12:26:16;35.05;;;22.30;;
27839;SDS011;15207;42.182;24.308;2023-12-07T12:28:42;32.90;;;20.10;;
27839;SDS011;15207;42.182;24.308;2023-12-07T12:31:09;31.50;;;19.80;;
27839;SDS011;15207;42.182;24.308;2023-12-07T12:33:36;31.65;;;19.95;;
27839;SDS011;15207;42.182;24.308;2023-12-07T12:36:03;34.90;;;20.20;;
27839;SDS011;15207;42.182;24.308;2023-12-07T12:38:32;31.80;;;19.90;;
27839;SDS011;15207;42.182;24.308;2023-12-07T12:43:23;31.70;;;19.40;;
27839;SDS011;15207;42.182;24.308;2023-12-07T12:45:49;34.70;;;21.30;;
27839;SDS011;15207;42.182;24.308;2023-12-07T12:48:14;37.40;;;19.80;;
27839;SDS011;15207;42.182;24.308;2023-12-07T12:50:40;31.90;;;20.40;;
27839;SDS011;15207;42.182;24.308;2023-12-07T12:53:10;32.80;;;19.90;;
27839;SDS011;15207;42.182;24.308;2023-12-07T12:55:37;32.05;;;19.45;;
27839;SDS011;15207;42.182;24.308;2023-12-07T12:58:04;31.23;;;19.00;;
27839;SDS011;15207;42.182;24.308;2023-12-07T13:00:32;34.40;;;20.90;;
27839;SDS011;15207;42.182;24.308;2023-12-07T13:02:59;33.80;;;19.40;;
27839;SDS011;15207;42.182;24.308;2023-12-07T13:05:28;37.30;;;19.95;;
27839;SDS011;15207;42.182;24.308;2023-12-07T13:07:53;31.80;;;19.70;;
27839;SDS011;15207;42.182;24.308;2023-12-07T13:10:19;33.30;;;20.00;;
27839;SDS011;15207;42.182;24.308;2023-12-07T13:12:45;30.00;;;19.30;;
27839;SDS011;15207;42.182;24.308;2023-12-07T13:15:11;28.15;;;17.85;;
27839;SDS011;15207;42.182;24.308;2023-12-07T13:17:40;32.70;;;19.50;;
27839;SDS011;15207;42.182;24.308;2023-12-07T13:20:06;29.80;;;19.00;;
27839;SDS011;15207;42.182;24.308;2023-12-07T13:22:36;29.95;;;19.15;;
27839;SDS011;15207;42.182;24.308;2023-12-07T13:25:02;29.30;;;18.60;;
27839;SDS011;15207;42.182;24.308;2023-12-07T13:29:53;33.80;;;19.60;;
27839;SDS011;15207;42.182;24.308;2023-12-07T13:32:19;34.60;;;20.30;;
27839;SDS011;15207;42.182;24.308;2023-12-07T13:34:44;35.20;;;21.80;;
27839;SDS011;15207;42.182;24.308;2023-12-07T13:37:10;37.30;;;22.30;;
27839;SDS011;15207;42.182;24.308;2023-12-07T13:39:35;28.15;;;18.80;;
27839;SDS011;15207;42.182;24.308;2023-12-07T13:42:01;28.35;;;19.25;;
27839;SDS011;15207;42.182;24.308;2023-12-07T13:44:27;25.00;;;12.30;;
27839;SDS011;15207;42.182;24.308;2023-12-07T13:46:52;13.90;;;9.00;;
27839;SDS011;15207;42.182;24.308;2023-12-07T13:49:19;23.20;;;8.40;;
27839;SDS011;15207;42.182;24.308;2023-12-07T13:51:45;20.80;;;8.70;;
27839;SDS011;15207;42.182;24.308;2023-12-07T13:54:11;13.80;;;8.60;;
27839;SDS011;15207;42.182;24.308;2023-12-07T13:56:37;23.15;;;8.80;;
27839;SDS011;15207;42.182;24.308;2023-12-07T14:01:28;23.50;;;8.50;;
27839;SDS011;15207;42.182;24.308;2023-12-07T14:03:53;17.70;;;8.90;;
27839;SDS011;15207;42.182;24.308;2023-12-07T14:06:22;21.40;;;10.20;;
27839;SDS011;15207;42.182;24.308;2023-12-07T14:11:17;18.60;;;10.30;;
27839;SDS011;15207;42.182;24.308;2023-12-07T14:13:43;18.30;;;10.70;;
27839;SDS011;15207;42.182;24.308;2023-12-07T14:16:11;20.80;;;11.30;;
27839;SDS011;15207;42.182;24.308;2023-12-07T14:18:39;15.30;;;9.95;;
27839;SDS011;15207;42.182;24.308;2023-12-07T14:21:05;15.53;;;10.37;;
27839;SDS011;15207;42.182;24.308;2023-12-07T14:23:30;14.40;;;9.80;;
27839;SDS011;15207;42.182;24.308;2023-12-07T14:25:56;21.55;;;9.50;;
27839;SDS011;15207;42.182;24.308;2023-12-07T14:28:26;19.80;;;10.25;;
27839;SDS011;15207;42.182;24.308;2023-12-07T14:30:55;12.40;;;9.40;;
27839;SDS011;15207;42.182;24.308;2023-12-07T14:33:24;13.45;;;9.30;;
27839;SDS011;15207;42.182;24.308;2023-12-07T14:35:49;15.75;;;9.45;;
27839;SDS011;15207;42.182;24.308;2023-12-07T14:38:15;14.60;;;9.40;;
27839;SDS011;15207;42.182;24.308;2023-12-07T14:40:40;21.30;;;9.25;;
27839;SDS011;15207;42.182;24.308;2023-12-07T14:43:06;16.40;;;8.90;;
27839;SDS011;15207;42.182;24.308;2023-12-07T14:45:31;21.35;;;9.60;;
27839;SDS011;15207;42.182;24.308;2023-12-07T14:47:56;20.60;;;9.40;;
27839;SDS011;15207;42.182;24.308;2023-12-07T14:50:23;20.60;;;8.60;;
27839;SDS011;15207;42.182;24.308;2023-12-07T14:57:39;18.40;;;8.80;;
27839;SDS011;15207;42.182;24.308;2023-12-07T15:00:04;21.92;;;8.38;;
27839;SDS011;15207;42.182;24.308;2023-12-07T15:04:56;58.70;;;23.00;;
27839;SDS011;15207;42.182;24.308;2023-12-07T15:07:21;211.00;;;73.80;;
27839;SDS011;15207;42.182;24.308;2023-12-07T15:09:46;167.10;;;57.50;;
27839;SDS011;15207;42.182;24.308;2023-12-07T15:12:14;164.80;;;76.70;;
27839;SDS011;15207;42.182;24.308;2023-12-07T15:14:41;72.35;;;42.65;;
27839;SDS011;15207;42.182;24.308;2023-12-07T15:17:09;15.40;;;9.30;;
27839;SDS011;15207;42.182;24.308;2023-12-07T15:19:34;16.27;;;9.33;;
27839;SDS011;15207;42.182;24.308;2023-12-07T15:22:00;12.80;;;7.50;;
27839;SDS011;15207;42.182;24.308;2023-12-07T15:24:25;14.18;;;8.00;;
27839;SDS011;15207;42.182;24.308;2023-12-07T15:29:16;11.40;;;6.90;;
27839;SDS011;15207;42.182;24.308;2023-12-07T15:31:41;16.75;;;7.75;;
27839;SDS011;15207;42.182;24.308;2023-12-07T15:34:08;12.05;;;7.20;;
27839;SDS011;15207;42.182;24.308;2023-12-07T15:36:35;14.40;;;7.80;;
27839;SDS011;15207;42.182;24.308;2023-12-07T15:39:01;15.70;;;7.80;;
27839;SDS011;15207;42.182;24.308;2023-12-07T15:41:26;18.75;;;8.65;;
27839;SDS011;15207;42.182;24.308;2023-12-07T15:43:51;13.50;;;7.23;;
27839;SDS011;15207;42.182;24.308;2023-12-07T15:46:17;14.60;;;7.30;;
27839;SDS011;15207;42.182;24.308;2023-12-07T15:48:43;14.60;;;6.60;;
27839;SDS011;15207;42.182;24.308;2023-12-07T15:51:08;8.30;;;6.50;;